createdAt,value
2023-01-19T00:00:38.065Z,44
2023-01-19T00:01:45.186Z,44
2023-01-19T00:02:52.296Z,47.6
2023-01-19T00:03:59.461Z,46
2023-01-19T00:05:06.547Z,49.1
2023-01-19T00:06:14.560Z,46.2
2023-01-19T00:07:21.819Z,50.1
2023-01-19T00:08:28.966Z,47.6
2023-01-19T00:09:36.019Z,48
2023-01-19T00:10:43.181Z,45.9
2023-01-19T00:11:50.246Z,45.2
2023-01-19T00:12:58.095Z,47.1
2023-01-19T00:14:04.591Z,46.5
2023-01-19T00:15:11.611Z,49.4
2023-01-19T00:16:18.882Z,45
2023-01-19T00:17:25.874Z,46.8
2023-01-19T00:18:33.034Z,43.7
2023-01-19T00:19:40.412Z,46.5
2023-01-19T00:20:47.731Z,47.2
2023-01-19T00:21:54.754Z,51.4
2023-01-19T00:23:02.411Z,50
2023-01-19T00:24:09.131Z,46.1
2023-01-19T00:25:16.832Z,44.1
2023-01-19T00:26:23.879Z,43.6
2023-01-19T00:27:31.111Z,43.1
2023-01-19T00:28:38.143Z,42.6
2023-01-19T00:29:45.242Z,43.1
2023-01-19T00:30:52.320Z,44.9
2023-01-19T00:31:59.527Z,41.6
2023-01-19T00:33:06.763Z,46.2
2023-01-19T00:34:13.747Z,47
2023-01-19T00:35:20.844Z,46.8
2023-01-19T00:36:28.013Z,49.8
2023-01-19T00:37:35.168Z,48.3
2023-01-19T00:38:42.271Z,52.5
2023-01-19T00:39:49.451Z,53.7
2023-01-19T00:40:56.513Z,54.5
2023-01-19T00:42:03.649Z,57
2023-01-19T00:43:15.808Z,54.5
2023-01-19T00:44:23.040Z,51.3
2023-01-19T00:45:30.189Z,54.3
2023-01-19T00:46:37.179Z,50.1
2023-01-19T00:47:44.310Z,50.2
2023-01-19T00:48:51.583Z,47.2
2023-01-19T00:49:58.584Z,43.9
2023-01-19T00:51:05.718Z,46.6
2023-01-19T00:52:12.880Z,43.6
2023-01-19T00:53:20.056Z,43.8
2023-01-19T00:54:27.673Z,40.3
2023-01-19T00:55:34.285Z,41.2
2023-01-19T00:56:41.319Z,38.9
2023-01-19T00:57:48.511Z,39.4
2023-01-19T00:58:55.563Z,37.7
2023-01-19T01:00:02.776Z,37.1
2023-01-19T01:01:10.531Z,38.9
2023-01-19T01:02:17.756Z,41
2023-01-19T01:03:24.669Z,43.5
2023-01-19T01:04:31.813Z,46.5
2023-01-19T01:05:38.966Z,46.3
2023-01-19T01:06:46.033Z,46
2023-01-19T01:07:53.299Z,49.6
2023-01-19T01:09:00.998Z,46.4
2023-01-19T01:10:08.394Z,50.8
2023-01-19T01:11:18.568Z,52.4
2023-01-19T01:12:25.899Z,55.8
2023-01-19T01:13:33.151Z,60.6
2023-01-19T01:14:39.959Z,64.2
2023-01-19T01:15:47.225Z,66.8
2023-01-19T01:16:54.226Z,71.1
2023-01-19T01:18:01.247Z,74.9
2023-01-19T01:19:08.426Z,70.4
2023-01-19T01:20:15.419Z,70.8
2023-01-19T01:21:22.602Z,76.2
2023-01-19T01:22:29.827Z,80.4
2023-01-19T01:23:36.875Z,73.7
2023-01-19T01:24:43.966Z,77
2023-01-19T01:25:51.135Z,70.7
2023-01-19T01:26:58.168Z,75.2
2023-01-19T01:28:05.457Z,76.4
2023-01-19T01:29:12.651Z,77.9
2023-01-19T01:30:19.694Z,73.2
2023-01-19T01:31:26.827Z,71.1
2023-01-19T01:32:33.928Z,76.8
2023-01-19T01:33:41.939Z,74
2023-01-19T01:34:48.200Z,77
2023-01-19T01:35:55.349Z,75.2
2023-01-19T01:37:02.522Z,75.2
2023-01-19T01:38:09.574Z,79.6
2023-01-19T01:39:16.654Z,69.3
2023-01-19T01:40:23.842Z,76.9
2023-01-19T01:41:30.992Z,74
2023-01-19T01:42:38.091Z,78.2
2023-01-19T01:43:45.214Z,80.3
2023-01-19T01:44:55.367Z,74.9
2023-01-19T01:46:02.586Z,78.7
2023-01-19T01:47:09.773Z,77.6
2023-01-19T01:48:16.820Z,77.3
2023-01-19T01:49:23.987Z,75.5
2023-01-19T01:50:31.015Z,73.5
2023-01-19T01:51:38.242Z,68.6
2023-01-19T01:53:06.234Z,71.1
2023-01-19T01:53:52.441Z,77.6
2023-01-19T01:55:09.779Z,76.6
2023-01-19T01:56:16.871Z,74.4
2023-01-19T01:57:23.965Z,80
2023-01-19T01:58:31.147Z,74.4
2023-01-19T01:59:38.258Z,74.7
2023-01-19T02:00:45.465Z,78.7
2023-01-19T02:01:57.635Z,75.2
2023-01-19T02:03:12.905Z,76
2023-01-19T02:04:19.977Z,69.4
2023-01-19T02:05:27.066Z,68.8
2023-01-19T02:06:34.370Z,71.7
2023-01-19T02:07:46.378Z,69.3
2023-01-19T02:09:04.266Z,68.4
2023-01-19T02:10:16.495Z,66.2
2023-01-19T02:11:28.660Z,64.1
2023-01-19T02:12:40.856Z,67.1
2023-01-19T02:13:53.073Z,61.3
2023-01-19T02:15:00.227Z,66.9
2023-01-19T02:16:07.327Z,65.7
2023-01-19T02:17:14.575Z,64.3
2023-01-19T02:18:21.846Z,64.5
2023-01-19T02:19:31.783Z,60.5
2023-01-19T02:20:44.195Z,61.4
2023-01-19T02:21:54.153Z,59.3
2023-01-19T02:23:06.989Z,60.5
2023-01-19T02:24:14.114Z,63.1
2023-01-19T02:25:22.527Z,61.9
2023-01-19T02:26:29.914Z,59.6
2023-01-19T02:27:37.067Z,62.4
2023-01-19T02:28:44.050Z,61.7
2023-01-19T02:29:51.218Z,58.5
2023-01-19T02:30:58.446Z,59.1
2023-01-19T02:32:05.645Z,60.4
2023-01-19T02:33:12.622Z,58.8
2023-01-19T02:34:19.828Z,57.2
2023-01-19T02:35:26.882Z,57.2
2023-01-19T02:36:34.086Z,68.9
2023-01-19T02:37:44.185Z,71.9
2023-01-19T02:38:51.306Z,75.1
2023-01-19T02:39:58.555Z,78
2023-01-19T02:41:05.634Z,81.8
2023-01-19T02:42:12.741Z,82.6
2023-01-19T02:43:30.097Z,83
2023-01-19T02:44:37.350Z,81.5
2023-01-19T02:45:44.343Z,82.2
2023-01-19T02:46:51.461Z,80.6
2023-01-19T02:47:58.529Z,89.1
2023-01-19T02:49:05.698Z,97.2
2023-01-19T02:50:12.880Z,103.3
2023-01-19T02:51:30.224Z,91.3
2023-01-19T02:52:37.335Z,86.3
2023-01-19T02:53:44.373Z,83.1
2023-01-19T02:54:56.581Z,92.8
2023-01-19T02:56:11.441Z,110.9
2023-01-19T02:57:26.607Z,108.1
2023-01-19T02:58:43.940Z,109.2
2023-01-19T02:59:59.149Z,115
2023-01-19T03:01:09.352Z,107.1
2023-01-19T03:02:21.681Z,112.3
2023-01-19T03:03:37.014Z,126.4
2023-01-19T03:04:49.558Z,123.6
2023-01-19T03:06:01.852Z,127
2023-01-19T03:07:19.755Z,132.3
2023-01-19T03:08:26.706Z,119.5
2023-01-19T03:09:37.031Z,112.4
2023-01-19T03:10:52.135Z,104.1
2023-01-19T03:11:59.198Z,93.9
2023-01-19T03:13:12.437Z,104.7
2023-01-19T03:14:22.094Z,107.4
2023-01-19T03:15:29.245Z,108.6
2023-01-19T03:16:42.522Z,113.3
2023-01-19T03:17:54.774Z,99.2
2023-01-19T03:19:02.259Z,97
2023-01-19T03:20:14.517Z,90.6
2023-01-19T03:21:26.705Z,83.1
2023-01-19T03:22:33.884Z,83.5
2023-01-19T03:23:41.042Z,79
2023-01-19T03:24:48.181Z,75.8
2023-01-19T03:25:55.282Z,81.8
2023-01-19T03:27:02.482Z,76.4
2023-01-19T03:28:09.564Z,82.3
2023-01-19T03:29:16.569Z,78.4
2023-01-19T03:30:23.716Z,73.5
2023-01-19T03:31:30.921Z,72.8
2023-01-19T03:32:38.037Z,67.3
2023-01-19T03:33:47.735Z,71.5
2023-01-19T03:34:54.837Z,73.2
2023-01-19T03:36:01.877Z,75.1
2023-01-19T03:37:12.136Z,71.6
2023-01-19T03:38:19.228Z,73.7
2023-01-19T03:39:26.327Z,75.1
2023-01-19T03:40:33.481Z,76.7
2023-01-19T03:41:40.685Z,75.9
2023-01-19T03:42:47.685Z,75.3
2023-01-19T03:43:55.069Z,76.8
2023-01-19T03:45:01.944Z,74.1
2023-01-19T03:46:09.050Z,74.4
2023-01-19T03:47:16.326Z,73.7
2023-01-19T03:48:23.421Z,68.7
2023-01-19T03:49:30.564Z,72
2023-01-19T03:50:37.559Z,73.7
2023-01-19T03:51:44.756Z,71.6
2023-01-19T03:52:51.907Z,69.5
2023-01-19T03:54:04.115Z,72.6
2023-01-19T03:55:11.261Z,75.3
2023-01-19T03:56:18.449Z,72.9
2023-01-19T03:57:25.513Z,73
2023-01-19T03:58:32.596Z,77.4
2023-01-19T03:59:39.773Z,79.6
2023-01-19T04:00:46.805Z,78
2023-01-19T04:01:54.009Z,73.1
2023-01-19T04:03:01.641Z,71.6
2023-01-19T04:04:08.268Z,74.4
2023-01-19T04:05:15.432Z,75.6
2023-01-19T04:06:22.666Z,73.2
2023-01-19T04:07:30.214Z,73.1
2023-01-19T04:08:37.377Z,77.8
2023-01-19T04:09:44.525Z,77.8
2023-01-19T04:10:51.854Z,78
2023-01-19T04:11:59.357Z,78.4
2023-01-19T04:13:06.807Z,81.3
2023-01-19T04:14:13.961Z,83.6
2023-01-19T04:15:21.088Z,75.7
2023-01-19T04:16:28.301Z,82.3
2023-01-19T04:17:35.341Z,73.4
2023-01-19T04:18:42.501Z,82.5
2023-01-19T04:19:49.514Z,81.3
2023-01-19T04:20:56.643Z,79.1
2023-01-19T04:22:03.855Z,83.4
2023-01-19T04:23:11.165Z,82.8
2023-01-19T04:24:18.795Z,83.4
2023-01-19T04:25:25.928Z,82
2023-01-19T04:26:32.889Z,82.8
2023-01-19T04:27:40.040Z,81.2
2023-01-19T04:28:47.200Z,81.4
2023-01-19T04:29:54.411Z,85.1
2023-01-19T04:31:01.380Z,80.7
2023-01-19T04:32:08.569Z,82.8
2023-01-19T04:33:18.730Z,83.4
2023-01-19T04:34:25.891Z,86.4
2023-01-19T04:35:33.036Z,84.6
2023-01-19T04:36:40.194Z,89.5
2023-01-19T04:37:47.272Z,89.1
2023-01-19T04:38:54.401Z,87.6
2023-01-19T04:40:01.473Z,90
2023-01-19T04:41:08.678Z,88.2
2023-01-19T04:42:15.852Z,88.9
2023-01-19T04:43:22.956Z,90.9
2023-01-19T04:44:30.060Z,90
2023-01-19T04:45:37.211Z,87.4
2023-01-19T04:46:44.305Z,93.1
2023-01-19T04:47:51.497Z,90.6
2023-01-19T04:48:58.612Z,94.8
2023-01-19T04:50:05.817Z,93.7
2023-01-19T04:51:13.411Z,90
2023-01-19T04:52:20.421Z,87.7
2023-01-19T04:53:27.645Z,92.9
2023-01-19T04:54:34.847Z,91.2
2023-01-19T04:55:41.933Z,94.1
2023-01-19T04:56:49.253Z,91.5
2023-01-19T04:57:56.662Z,91.7
2023-01-19T04:59:03.750Z,95
2023-01-19T05:00:10.874Z,92.5
2023-01-19T05:01:18.055Z,92.6
2023-01-19T05:02:25.181Z,91.7
2023-01-19T05:03:32.464Z,94.2
2023-01-19T05:04:39.428Z,89.8
2023-01-19T05:05:46.492Z,92.1
2023-01-19T05:06:53.693Z,90.7
2023-01-19T05:08:00.826Z,93.3
2023-01-19T05:09:08.103Z,94.3
2023-01-19T05:10:15.175Z,93.4
2023-01-19T05:11:22.156Z,90.7
2023-01-19T05:12:29.291Z,91.1
2023-01-19T05:13:36.412Z,90.8
2023-01-19T05:14:43.554Z,94.8
2023-01-19T05:15:50.922Z,91.4
2023-01-19T05:16:57.824Z,94.5
2023-01-19T05:18:05.025Z,101.4
2023-01-19T05:19:12.083Z,103.6
2023-01-19T05:20:19.196Z,96.9
2023-01-19T05:21:26.396Z,95.2
2023-01-19T05:22:33.509Z,95.4
2023-01-19T05:23:40.640Z,96.9
2023-01-19T05:24:47.750Z,94.1
2023-01-19T05:25:54.870Z,104.1
2023-01-19T05:27:02.150Z,109.3
2023-01-19T05:28:09.209Z,121.3
2023-01-19T05:29:16.540Z,118.7
2023-01-19T05:30:23.468Z,108.6
2023-01-19T05:31:30.698Z,94.7
2023-01-19T05:32:37.666Z,94.3
2023-01-19T05:33:44.857Z,98.5
2023-01-19T05:34:51.981Z,106.3
2023-01-19T05:35:59.139Z,108.2
2023-01-19T05:37:06.232Z,116.5
2023-01-19T05:38:14.494Z,104
2023-01-19T05:39:20.562Z,99.3
2023-01-19T05:40:27.639Z,93.3
2023-01-19T05:41:34.881Z,92.5
2023-01-19T05:42:41.949Z,92
2023-01-19T05:43:49.105Z,90
2023-01-19T05:44:56.096Z,85.3
2023-01-19T05:46:03.284Z,91.9
2023-01-19T05:47:10.407Z,89.7
2023-01-19T05:48:17.584Z,87.3
2023-01-19T05:49:24.680Z,89.2
2023-01-19T05:50:31.815Z,88.6
2023-01-19T05:51:38.975Z,88.9
2023-01-19T05:52:45.963Z,91
2023-01-19T05:53:53.305Z,89.3
2023-01-19T05:55:00.306Z,87
2023-01-19T05:56:07.387Z,86.5
2023-01-19T05:57:14.452Z,89.3
2023-01-19T05:58:21.668Z,83.9
2023-01-19T05:59:28.856Z,86
2023-01-19T06:00:36.047Z,88.5
2023-01-19T06:01:43.089Z,83.9
2023-01-19T06:02:50.168Z,92.1
2023-01-19T06:03:57.217Z,88
2023-01-19T06:05:04.383Z,89
2023-01-19T06:06:11.525Z,89.9
2023-01-19T06:07:18.732Z,91.8
2023-01-19T06:08:25.732Z,89.5
2023-01-19T06:09:32.884Z,87.9
2023-01-19T06:10:39.952Z,87.3
2023-01-19T06:11:47.126Z,87
2023-01-19T06:12:54.287Z,91.9
2023-01-19T06:14:01.587Z,93.4
2023-01-19T06:15:08.967Z,90.9
2023-01-19T06:16:16.081Z,90.9
2023-01-19T06:17:23.209Z,88.9
2023-01-19T06:18:30.351Z,88.8
2023-01-19T06:19:37.559Z,79.7
2023-01-19T06:20:44.515Z,87.6
2023-01-19T06:21:51.676Z,90
2023-01-19T06:22:59.266Z,81.7
2023-01-19T06:24:05.968Z,84.1
2023-01-19T06:25:13.160Z,76
2023-01-19T06:26:20.387Z,77.8
2023-01-19T06:27:27.348Z,73.6
2023-01-19T06:28:34.492Z,71.5
2023-01-19T06:29:41.671Z,69.5
2023-01-19T06:30:48.787Z,65.8
2023-01-19T06:31:55.981Z,75.4
2023-01-19T06:33:03.329Z,71.2
2023-01-19T06:34:10.195Z,71.1
2023-01-19T06:35:17.227Z,74.4
2023-01-19T06:36:24.482Z,77.5
2023-01-19T06:37:31.579Z,73.6
2023-01-19T06:38:38.799Z,79.1
2023-01-19T06:39:45.735Z,79.5
2023-01-19T06:40:53.037Z,81.9
2023-01-19T06:42:00.016Z,86.4
2023-01-19T06:43:07.165Z,84
2023-01-19T06:44:14.323Z,80.2
2023-01-19T06:45:24.586Z,81.6
2023-01-19T06:46:31.639Z,76
2023-01-19T06:47:38.834Z,81.4
2023-01-19T06:48:45.901Z,69.7
2023-01-19T06:49:52.969Z,61.6
2023-01-19T06:51:00.169Z,66.5
2023-01-19T06:52:07.728Z,67
2023-01-19T06:53:14.997Z,62.6
2023-01-19T06:54:22.121Z,60.4
2023-01-19T06:55:29.121Z,60.6
2023-01-19T06:56:36.263Z,61.4
2023-01-19T06:57:43.433Z,57.8
2023-01-19T06:58:50.524Z,53.3
2023-01-19T06:59:57.678Z,52.2
2023-01-19T07:01:04.983Z,53.1
2023-01-19T07:02:26.053Z,55
2023-01-19T07:03:18.982Z,51.3
2023-01-19T07:04:26.096Z,51.2
2023-01-19T07:05:33.224Z,50.8
2023-01-19T07:06:40.458Z,52.9
2023-01-19T07:07:47.488Z,47.1
2023-01-19T07:08:54.690Z,53.7
2023-01-19T07:10:01.810Z,52.6
2023-01-19T07:11:22.004Z,47.6
2023-01-19T07:12:20.031Z,51.9
2023-01-19T07:13:27.148Z,48.5
2023-01-19T07:14:34.394Z,52.7
2023-01-19T07:15:41.436Z,50.8
2023-01-19T07:16:48.577Z,54.5
2023-01-19T07:17:55.573Z,48.8
2023-01-19T07:19:02.779Z,48.6
2023-01-19T07:20:10.000Z,47.6
2023-01-19T07:21:17.625Z,50.9
2023-01-19T07:22:24.600Z,49.2
2023-01-19T07:23:31.756Z,44.4
2023-01-19T07:24:38.902Z,47.9
2023-01-19T07:25:45.984Z,46.1
2023-01-19T07:26:53.154Z,49.1
2023-01-19T07:28:00.355Z,50
2023-01-19T07:29:07.314Z,52.2
2023-01-19T07:30:14.432Z,49.5
2023-01-19T07:31:21.796Z,44.2
2023-01-19T07:32:28.745Z,44.5
2023-01-19T07:33:36.038Z,45.6
2023-01-19T07:34:43.049Z,47.1
2023-01-19T07:35:50.031Z,44.2
2023-01-19T07:36:57.177Z,42.9
2023-01-19T07:38:04.328Z,44.6
2023-01-19T07:39:11.560Z,44.3
2023-01-19T07:40:18.653Z,42.5
2023-01-19T07:41:25.715Z,44
2023-01-19T07:42:32.895Z,40.6
2023-01-19T07:43:39.987Z,42.2
2023-01-19T07:44:47.101Z,41.9
2023-01-19T07:45:54.371Z,41.6
2023-01-19T07:47:04.502Z,42.5
2023-01-19T07:48:11.584Z,42.8
2023-01-19T07:49:18.677Z,41.5
2023-01-19T07:50:25.826Z,43.8
2023-01-19T07:51:32.982Z,44.2
2023-01-19T07:52:39.995Z,44.6
2023-01-19T07:53:47.157Z,43.9
2023-01-19T07:54:54.253Z,45.5
2023-01-19T07:56:01.476Z,40.4
2023-01-19T07:57:08.632Z,42
2023-01-19T07:58:15.637Z,43.4
2023-01-19T07:59:22.977Z,43.3
2023-01-19T08:00:29.923Z,40.8
2023-01-19T08:01:37.170Z,36.9
2023-01-19T08:02:44.155Z,38.4
2023-01-19T08:03:51.405Z,36.2
2023-01-19T08:04:58.545Z,36.5
2023-01-19T08:06:05.622Z,36
2023-01-19T08:07:23.300Z,41.7
2023-01-19T08:08:34.000Z,39.1
2023-01-19T08:09:46.199Z,41.7
2023-01-19T08:10:56.366Z,43.1
2023-01-19T08:12:06.465Z,40.5
2023-01-19T08:13:15.484Z,39.9
2023-01-19T08:14:25.903Z,37.9
2023-01-19T08:15:33.224Z,40.7
2023-01-19T08:16:41.688Z,38.6
2023-01-19T08:17:50.640Z,35.6
2023-01-19T08:19:02.054Z,40.2
2023-01-19T08:20:09.062Z,42.6
2023-01-19T08:21:16.521Z,38.3
2023-01-19T08:22:24.709Z,35.5
2023-01-19T08:23:34.607Z,37.6
2023-01-19T08:24:42.521Z,33.5
2023-01-19T08:25:49.890Z,34.5
2023-01-19T08:26:57.558Z,36.1
2023-01-19T08:28:06.476Z,37.9
2023-01-19T08:29:14.367Z,39.7
2023-01-19T08:30:25.801Z,37.2
2023-01-19T08:31:35.240Z,38.8
2023-01-19T08:32:47.513Z,38.6
2023-01-19T08:34:01.059Z,37.6
2023-01-19T08:35:12.563Z,34.5
2023-01-19T08:36:22.037Z,40
2023-01-19T08:37:30.122Z,40.6
2023-01-19T08:38:40.165Z,44.4
2023-01-19T08:39:52.863Z,41.3
2023-01-19T08:41:03.572Z,41
2023-01-19T08:42:15.716Z,42
2023-01-19T08:43:27.159Z,38.5
2023-01-19T08:44:41.408Z,40.7
2023-01-19T08:45:48.300Z,39.2
2023-01-19T08:46:56.162Z,41
2023-01-19T08:48:05.749Z,31.4
2023-01-19T08:49:14.678Z,30.5
2023-01-19T08:50:25.226Z,37
2023-01-19T08:51:36.538Z,37.8
2023-01-19T08:52:48.887Z,35.2
2023-01-19T08:53:59.669Z,35.8
2023-01-19T08:55:08.771Z,33.5
2023-01-19T08:56:19.642Z,30
2023-01-19T08:57:25.795Z,28.2
2023-01-19T08:58:34.813Z,27.8
2023-01-19T08:59:45.333Z,29
2023-01-19T09:00:54.464Z,30.4
2023-01-19T09:02:03.195Z,33.7
2023-01-19T09:03:11.291Z,37.8
2023-01-19T09:04:19.701Z,34.1
2023-01-19T09:05:27.910Z,27.6
2023-01-19T09:06:38.336Z,51.9
2023-01-19T09:07:46.079Z,38
2023-01-19T09:08:54.587Z,47.6
2023-01-19T09:10:03.573Z,35.7
2023-01-19T09:11:11.578Z,30.4
2023-01-19T09:12:21.024Z,25.4
2023-01-19T09:13:30.768Z,26
2023-01-19T09:14:39.223Z,23.2
2023-01-19T09:15:48.639Z,24.8
2023-01-19T09:16:57.531Z,25.9
2023-01-19T09:18:05.155Z,77
2023-01-19T09:19:14.604Z,81.3
2023-01-19T09:20:24.828Z,36.1
2023-01-19T09:21:34.303Z,26.6
2023-01-19T09:22:44.156Z,26.9
2023-01-19T09:23:54.856Z,23.1
2023-01-19T09:25:03.291Z,23.7
2023-01-19T09:26:13.893Z,26.3
2023-01-19T09:27:24.950Z,24.4
2023-01-19T09:28:35.048Z,26.2
2023-01-19T09:29:44.300Z,26.6
2023-01-19T09:30:53.461Z,25.3
2023-01-19T09:32:01.194Z,25
2023-01-19T09:33:11.587Z,26.4
2023-01-19T09:34:21.885Z,27.7
2023-01-19T09:35:31.184Z,27.7
2023-01-19T09:36:40.183Z,25.6
2023-01-19T09:37:48.184Z,28.6
2023-01-19T09:38:55.480Z,28.7
2023-01-19T09:40:02.635Z,27.6
2023-01-19T09:41:10.243Z,27.8
2023-01-19T09:42:20.344Z,28.5
2023-01-19T09:43:30.536Z,27.4
2023-01-19T09:44:47.824Z,25.1
2023-01-19T09:45:56.300Z,24.2
2023-01-19T09:47:05.524Z,24
2023-01-19T09:48:19.088Z,25.5
2023-01-19T09:49:32.099Z,24.3
2023-01-19T09:50:39.603Z,21.5
2023-01-19T09:51:51.057Z,21.3
2023-01-19T09:53:01.793Z,19.9
2023-01-19T09:54:09.949Z,20.7
2023-01-19T09:55:29.413Z,20.2
2023-01-19T09:56:36.502Z,20
2023-01-19T09:57:44.469Z,19
2023-01-19T09:58:54.651Z,20.1
2023-01-19T10:00:03.866Z,18.1
2023-01-19T10:01:13.054Z,19.3
2023-01-19T10:02:31.138Z,18.3
2023-01-19T10:03:46.847Z,20.2
2023-01-19T10:04:55.990Z,19.6
2023-01-19T10:06:08.061Z,19.3
2023-01-19T10:07:17.546Z,17.4
2023-01-19T10:08:32.745Z,19.4
2023-01-19T10:09:44.193Z,18.4
2023-01-19T10:11:00.253Z,17.4
2023-01-19T10:12:09.285Z,15.9
2023-01-19T10:13:24.341Z,17.7
2023-01-19T10:14:40.053Z,20.2
2023-01-19T10:15:54.242Z,21.1
2023-01-19T10:17:06.749Z,19.1
2023-01-19T10:18:25.592Z,21.3
2023-01-19T10:19:38.804Z,18.7
2023-01-19T10:20:47.183Z,20.4
2023-01-19T10:21:55.646Z,17.4
2023-01-19T10:23:04.973Z,22.9
2023-01-19T10:24:19.338Z,23.2
2023-01-19T10:25:32.743Z,21.4
2023-01-19T10:26:40.544Z,21
2023-01-19T10:27:51.802Z,21.8
2023-01-19T10:29:01.675Z,19.9
2023-01-19T10:30:10.501Z,18.4
2023-01-19T10:31:24.340Z,21
2023-01-19T10:32:32.920Z,21.5
2023-01-19T10:33:41.360Z,23
2023-01-19T10:34:51.543Z,25.3
2023-01-19T10:35:59.690Z,25
2023-01-19T10:37:13.358Z,21.1
2023-01-19T10:39:36.918Z,19.3
2023-01-19T10:40:42.620Z,22.7
2023-01-19T10:41:52.142Z,25.1
2023-01-19T10:43:01.089Z,22.5
2023-01-19T10:44:16.981Z,24.2
2023-01-19T10:45:27.344Z,20.3
2023-01-19T10:46:35.898Z,19.9
2023-01-19T10:47:51.054Z,21.5
2023-01-19T10:48:59.408Z,22.5
2023-01-19T10:50:08.069Z,20.8
2023-01-19T10:51:26.885Z,16.6
2023-01-19T10:52:36.577Z,17.7
2023-01-19T10:53:44.797Z,17.8
2023-01-19T10:55:02.470Z,18.1
2023-01-19T10:56:11.262Z,20.7
2023-01-19T10:57:18.998Z,17.8
2023-01-19T10:58:31.784Z,17.4
2023-01-19T10:59:39.832Z,15.2
2023-01-19T11:00:49.784Z,16.4
2023-01-19T11:01:58.541Z,16.3
2023-01-19T11:03:17.275Z,16.5
2023-01-19T11:04:28.629Z,18.9
2023-01-19T11:05:36.866Z,17.1
2023-01-19T11:06:46.479Z,17.9
2023-01-19T11:07:54.559Z,18.2
2023-01-19T11:09:04.577Z,21
2023-01-19T11:10:18.808Z,24.8
2023-01-19T11:11:37.344Z,23.9
2023-01-19T11:12:45.972Z,25.9
2023-01-19T11:14:07.893Z,28.6
2023-01-19T11:15:18.501Z,27.5
2023-01-19T11:16:30.997Z,29.2
2023-01-19T11:17:41.076Z,26.9
2023-01-19T11:18:51.606Z,24.7
2023-01-19T11:20:00.204Z,24.5
2023-01-19T11:21:10.164Z,22.6
2023-01-19T11:22:19.751Z,21.4
2023-01-19T11:23:29.384Z,22.6
2023-01-19T11:24:38.307Z,21.7
2023-01-19T11:25:46.898Z,32.8
2023-01-19T11:26:55.516Z,25.9
2023-01-19T11:28:03.242Z,24.6
2023-01-19T11:29:10.517Z,22.7
2023-01-19T11:30:25.778Z,21.1
2023-01-19T11:31:33.005Z,22.4
2023-01-19T11:32:40.096Z,21.4
2023-01-19T11:33:49.033Z,28.1
2023-01-19T11:34:54.342Z,27
2023-01-19T11:36:01.399Z,25.8
2023-01-19T11:37:13.748Z,23.9
2023-01-19T11:38:23.415Z,19.3
2023-01-19T11:39:30.441Z,17.5
2023-01-19T11:40:37.652Z,18.7
2023-01-19T11:41:44.777Z,18
2023-01-19T11:42:54.835Z,17.2
2023-01-19T11:44:01.948Z,18.8
2023-01-19T11:45:14.136Z,17.7
2023-01-19T11:46:21.333Z,17.7
2023-01-19T11:47:28.443Z,17.9
2023-01-19T11:48:35.707Z,17.8
2023-01-19T11:49:42.643Z,18.1
2023-01-19T11:50:54.916Z,17.1
2023-01-19T11:52:01.877Z,15.7
2023-01-19T11:53:17.239Z,16.7
2023-01-19T11:54:27.407Z,17.1
2023-01-19T11:55:39.644Z,19.3
2023-01-19T11:56:46.687Z,20.7
2023-01-19T11:57:54.550Z,18.7
2023-01-19T11:59:00.953Z,18.3
2023-01-19T12:00:08.059Z,21.5
2023-01-19T12:01:15.638Z,21.3
2023-01-19T12:02:25.920Z,25.4
2023-01-19T12:03:35.549Z,29.6
2023-01-19T12:04:50.743Z,30.5
2023-01-19T12:05:57.963Z,31.7
2023-01-19T12:07:05.046Z,32
2023-01-19T12:08:12.171Z,27.3
2023-01-19T12:09:22.215Z,29.1
2023-01-19T12:10:29.327Z,21.2
2023-01-19T12:11:39.606Z,19.3
2023-01-19T12:12:47.113Z,18.6
2023-01-19T12:13:54.596Z,20.4
2023-01-19T12:15:01.554Z,19.9
2023-01-19T12:16:10.649Z,20.8
2023-01-19T12:17:24.123Z,21
2023-01-19T12:18:39.712Z,21.7
2023-01-19T12:19:46.619Z,20.6
2023-01-19T12:21:00.418Z,20.2
2023-01-19T12:22:06.798Z,21.2
2023-01-19T12:23:18.831Z,22
2023-01-19T12:24:34.720Z,23.3
2023-01-19T12:25:44.624Z,21.2
2023-01-19T12:27:02.843Z,23.4
2023-01-19T12:28:15.151Z,22.3
2023-01-19T12:29:22.232Z,23.3
2023-01-19T12:30:29.436Z,21.2
2023-01-19T12:31:36.564Z,22.5
2023-01-19T12:32:43.575Z,26.2
2023-01-19T12:33:50.783Z,21.4
2023-01-19T12:34:57.784Z,19.6
2023-01-19T12:36:04.904Z,19.7
2023-01-19T12:37:13.690Z,20.7
2023-01-19T12:38:29.422Z,20
2023-01-19T12:39:46.574Z,20.5
2023-01-19T12:40:53.770Z,19.3
2023-01-19T12:42:11.001Z,21.1
2023-01-19T12:43:18.188Z,21.3
2023-01-19T12:44:25.233Z,21.2
2023-01-19T12:45:32.407Z,21.3
2023-01-19T12:46:39.682Z,19
2023-01-19T12:47:52.960Z,20.5
2023-01-19T12:48:58.878Z,25.1
2023-01-19T12:50:08.553Z,23
2023-01-19T12:51:18.803Z,24.6
2023-01-19T12:52:26.047Z,24.8
2023-01-19T12:53:36.110Z,23.2
2023-01-19T12:54:43.255Z,20
2023-01-19T12:56:01.035Z,21.8
2023-01-19T12:57:07.990Z,22.3
2023-01-19T12:58:20.760Z,24.2
2023-01-19T12:59:27.859Z,22.9
2023-01-19T13:00:35.051Z,22.3
2023-01-19T13:01:45.326Z,21.3
2023-01-19T13:03:02.499Z,19.8
2023-01-19T13:04:19.842Z,22.1
2023-01-19T13:05:33.045Z,22.3
2023-01-19T13:06:42.233Z,23
2023-01-19T13:07:52.297Z,23.8
2023-01-19T13:09:04.481Z,27.1
2023-01-19T13:10:21.849Z,24.1
2023-01-19T13:11:39.239Z,25.9
2023-01-19T13:12:46.224Z,25.6
2023-01-19T13:14:03.596Z,27.4
2023-01-19T13:15:20.809Z,25.9
2023-01-19T13:16:31.036Z,27.2
2023-01-19T13:17:38.229Z,23.2
2023-01-19T13:18:50.320Z,24.2
2023-01-19T13:20:07.627Z,29.1
2023-01-19T13:21:24.998Z,26.7
2023-01-19T13:22:37.110Z,24.1
2023-01-19T13:23:49.269Z,24.9
2023-01-19T13:24:57.016Z,29.2
2023-01-19T13:26:11.661Z,30.6
2023-01-19T13:27:18.788Z,29.6
2023-01-19T13:28:26.034Z,33.2
2023-01-19T13:29:35.728Z,31.1
2023-01-19T13:30:42.964Z,31.1
2023-01-19T13:31:55.495Z,27.5
2023-01-19T13:33:02.610Z,27.7
2023-01-19T13:34:09.669Z,27.8
2023-01-19T13:35:16.817Z,26.5
2023-01-19T13:36:24.018Z,29.3
2023-01-19T13:37:31.101Z,24.4
2023-01-19T13:38:43.838Z,27
2023-01-19T13:39:50.858Z,23.9
2023-01-19T13:40:58.021Z,24.4
2023-01-19T13:42:05.133Z,24
2023-01-19T13:43:17.336Z,22.2
2023-01-19T13:44:24.489Z,23.3
2023-01-19T13:45:31.790Z,26.5
2023-01-19T13:46:38.833Z,25.2
2023-01-19T13:47:45.860Z,24.2
2023-01-19T13:48:52.941Z,21.7
2023-01-19T13:50:00.406Z,24.7
2023-01-19T13:51:07.226Z,26.9
2023-01-19T13:52:14.390Z,25.5
2023-01-19T13:53:24.058Z,26.5
2023-01-19T13:54:31.415Z,26.5
2023-01-19T13:55:38.610Z,29.2
2023-01-19T13:56:45.814Z,29.6
2023-01-19T13:57:52.903Z,27
2023-01-19T13:59:00.211Z,26.9
2023-01-19T14:00:07.632Z,25.2
2023-01-19T14:01:14.802Z,29
2023-01-19T14:02:24.570Z,49.3
2023-01-19T14:03:31.602Z,41.5
2023-01-19T14:04:38.582Z,28.4
2023-01-19T14:05:45.852Z,26.5
2023-01-19T14:06:52.837Z,26.2
2023-01-19T14:07:59.959Z,28.9
2023-01-19T14:09:07.095Z,27
2023-01-19T14:10:19.845Z,25.9
2023-01-19T14:11:26.869Z,26.3
2023-01-19T14:12:35.053Z,25.7
2023-01-19T14:13:41.169Z,24.8
2023-01-19T14:14:48.168Z,26
2023-01-19T14:15:55.550Z,24
2023-01-19T14:17:02.476Z,25.6
2023-01-19T14:18:09.895Z,25.7
2023-01-19T14:19:17.217Z,31.1
2023-01-19T14:20:24.173Z,30.1
2023-01-19T14:21:31.402Z,33.5
2023-01-19T14:22:41.584Z,39.5
2023-01-19T14:23:48.798Z,28.9
2023-01-19T14:24:55.801Z,29.8
2023-01-19T14:26:02.930Z,31.1
2023-01-19T14:27:20.209Z,31.5
2023-01-19T14:28:27.321Z,29.5
2023-01-19T14:29:39.481Z,31.9
2023-01-19T14:30:46.657Z,30.4
2023-01-19T14:32:01.859Z,25.6
2023-01-19T14:33:14.036Z,24.8
2023-01-19T14:34:31.360Z,25.3
2023-01-19T14:35:41.443Z,25.4
2023-01-19T14:36:49.577Z,20.6
2023-01-19T14:37:56.933Z,20.1
2023-01-19T14:39:03.812Z,21.5
2023-01-19T14:40:11.059Z,21.7
2023-01-19T14:41:21.122Z,20.4
2023-01-19T14:42:28.441Z,22.3
2023-01-19T14:43:35.375Z,25
2023-01-19T14:44:47.562Z,27.3
2023-01-19T14:45:54.738Z,27.8
2023-01-19T14:47:01.833Z,27.7
2023-01-19T14:48:08.954Z,31.1
2023-01-19T14:49:16.105Z,28.4
2023-01-19T14:50:23.189Z,27.9
2023-01-19T14:51:35.384Z,26.4
2023-01-19T14:52:42.534Z,27
2023-01-19T14:53:54.649Z,25.9
2023-01-19T14:55:01.743Z,24.7
2023-01-19T14:56:09.421Z,26.5
2023-01-19T14:57:16.474Z,24.1
2023-01-19T14:58:25.005Z,33.4
2023-01-19T14:59:34.574Z,40.1
2023-01-19T15:00:42.407Z,41.1
2023-01-19T15:01:51.412Z,36.1
2023-01-19T15:02:58.799Z,36.4
2023-01-19T15:04:06.577Z,35.2
2023-01-19T15:05:13.500Z,27
2023-01-19T15:06:20.778Z,27.2
2023-01-19T15:07:27.677Z,26.9
2023-01-19T15:08:34.945Z,22.5
2023-01-19T15:09:41.997Z,23.1
2023-01-19T15:10:52.030Z,25.9
2023-01-19T15:11:59.114Z,23.6
2023-01-19T15:13:06.258Z,22.9
2023-01-19T15:14:18.486Z,27.1
2023-01-19T15:15:25.617Z,23.8
2023-01-19T15:16:32.713Z,28.9
2023-01-19T15:17:39.882Z,26.1
2023-01-19T15:18:46.918Z,27
2023-01-19T15:19:53.926Z,28.9
2023-01-19T15:21:01.292Z,28.6